Time;durP1;ratioP1;P1;durP2;ratioP2;P2;SDS_P1;SDS_P2;PMS_P1;PMS_P2;Temp;Humidity;BMP_temperature;BMP_pressure;BME280_temperature;BME280_humidity;BME280_pressure;Samples;Min_cycle;Max_cycle;Signal;HPM_P1;HPM_P2
2023/04/22 00:01:04;;;;;;;3.38;2.13;;;5.30;99.90;;;;;;5005168;28;20054;-74
2023/04/22 00:03:32;;;;;;;8.23;2.83;;;5.30;99.90;;;;;;5010868;28;20366;-65
2023/04/22 00:05:59;;;;;;;3.10;2.80;;;5.30;99.90;;;;;;4998974;28;20054;-69
2023/04/22 00:08:26;;;;;;;2.88;2.40;;;5.30;99.90;;;;;;5018688;28;20058;-76
2023/04/22 00:10:55;;;;;;;3.22;2.42;;;5.30;99.90;;;;;;5015792;28;20058;-72
2023/04/22 00:13:22;;;;;;;5.13;2.53;;;5.30;99.90;;;;;;5012322;28;20068;-67
2023/04/22 00:15:49;;;;;;;3.70;2.15;;;5.20;99.90;;;;;;4999940;28;20385;-62
2023/04/22 00:18:17;;;;;;;9.73;2.42;;;5.20;99.90;;;;;;5015064;28;20053;-62
2023/04/22 00:20:44;;;;;;;2.90;2.22;;;5.20;99.90;;;;;;5009214;28;20108;-70
2023/04/22 00:23:12;;;;;;;4.47;2.75;;;5.20;99.90;;;;;;5020858;28;20604;-69
2023/04/22 00:25:39;;;;;;;3.03;1.77;;;5.20;99.90;;;;;;5014293;28;20044;-65
2023/04/22 00:28:06;;;;;;;4.53;2.53;;;5.20;99.90;;;;;;5017586;28;20054;-63
2023/04/22 00:30:34;;;;;;;4.43;2.13;;;5.20;99.90;;;;;;5005579;28;20061;-62
2023/04/22 00:33:01;;;;;;;2.67;1.98;;;5.10;99.90;;;;;;5006126;28;20120;-63
2023/04/22 00:35:28;;;;;;;5.30;2.15;;;5.10;99.90;;;;;;5013390;28;20103;-67
2023/04/22 00:37:55;;;;;;;3.22;2.40;;;5.10;99.90;;;;;;5001734;28;20054;-61
2023/04/22 00:40:22;;;;;;;3.55;2.53;;;5.10;99.90;;;;;;5019664;28;20144;-62
2023/04/22 00:42:50;;;;;;;3.95;2.35;;;5.00;99.90;;;;;;5017235;28;20053;-68
2023/04/22 00:45:18;;;;;;;2.40;2.20;;;5.00;99.90;;;;;;5015630;28;20060;-66
2023/04/22 00:47:46;;;;;;;4.57;2.08;;;4.90;99.90;;;;;;4998328;28;20042;-61
2023/04/22 00:50:14;;;;;;;2.13;1.90;;;4.90;99.90;;;;;;5013565;28;20142;-62
2023/04/22 00:52:41;;;;;;;5.20;2.15;;;4.90;99.90;;;;;;5005355;28;20064;-65
2023/04/22 00:55:08;;;;;;;4.78;3.00;;;4.90;99.90;;;;;;5014471;28;20748;-65
2023/04/22 00:57:35;;;;;;;2.33;1.70;;;4.90;99.90;;;;;;5016101;28;20116;-71
2023/04/22 01:00:08;;;;;;;2.08;1.92;;;4.90;99.90;;;;;;5000621;28;20058;-63
2023/04/22 01:02:39;;;;;;;2.95;1.98;;;4.90;99.90;;;;;;5011238;28;20060;-70
2023/04/22 01:05:09;;;;;;;2.40;2.05;;;4.90;99.90;;;;;;5008836;28;20050;-68
2023/04/22 01:07:36;;;;;;;1.73;1.50;;;4.80;99.90;;;;;;5002997;28;20058;-62
2023/04/22 01:10:04;;;;;;;2.97;2.10;;;4.80;99.90;;;;;;5006137;28;20049;-62
2023/04/22 01:12:31;;;;;;;6.07;2.45;;;4.80;99.90;;;;;;5028150;28;20136;-67
2023/04/22 01:14:58;;;;;;;6.22;2.00;;;4.70;99.90;;;;;;5021227;28;20073;-63
2023/04/22 01:17:25;;;;;;;2.90;2.17;;;4.70;99.90;;;;;;5017846;28;20675;-62
2023/04/22 01:19:54;;;;;;;4.25;1.90;;;4.70;99.90;;;;;;5018405;28;20442;-65
2023/04/22 01:22:22;;;;;;;7.05;2.33;;;4.70;99.90;;;;;;5002943;28;20038;-64
2023/04/22 01:24:50;;;;;;;5.20;2.08;;;4.70;99.90;;;;;;5011900;28;20057;-63
2023/04/22 01:27:18;;;;;;;4.85;2.25;;;4.70;99.90;;;;;;5022045;28;20116;-67
2023/04/22 01:29:45;;;;;;;3.05;1.90;;;4.70;99.90;;;;;;5013008;28;20073;-61
2023/04/22 01:32:12;;;;;;;6.25;2.03;;;4.70;99.90;;;;;;5005001;28;20452;-62
2023/04/22 01:34:39;;;;;;;2.08;1.50;;;4.70;99.90;;;;;;5012767;28;20061;-67
2023/04/22 01:37:06;;;;;;;3.97;1.90;;;4.70;99.90;;;;;;5003916;28;20049;-61
2023/04/22 01:39:34;;;;;;;3.40;1.80;;;4.70;99.90;;;;;;5002247;28;20483;-61
2023/04/22 01:42:02;;;;;;;3.40;2.10;;;4.70;99.90;;;;;;5024676;28;20081;-68
2023/04/22 01:44:29;;;;;;;4.05;1.80;;;4.70;99.90;;;;;;5020609;28;20045;-66
2023/04/22 01:46:56;;;;;;;2.50;1.52;;;4.70;99.90;;;;;;5024621;28;20555;-68
2023/04/22 01:49:23;;;;;;;4.60;2.20;;;4.70;99.90;;;;;;5025147;28;20511;-75
2023/04/22 01:51:50;;;;;;;4.10;1.42;;;4.60;99.90;;;;;;5021168;28;20434;-67
2023/04/22 01:54:17;;;;;;;3.33;2.45;;;4.70;99.90;;;;;;5008342;28;20065;-68
2023/04/22 01:56:53;;;;;;;2.35;1.10;;;4.60;99.90;;;;;;5017175;28;20042;-70
2023/04/22 01:59:20;;;;;;;2.97;1.52;;;4.60;99.90;;;;;;5019619;28;20050;-66
2023/04/22 02:01:48;;;;;;;2.42;1.80;;;4.60;99.90;;;;;;5021413;28;20754;-63
2023/04/22 02:04:17;;;;;;;3.42;1.90;;;4.60;99.90;;;;;;5018726;28;20034;-61
2023/04/22 02:06:44;;;;;;;3.80;1.77;;;4.60;99.90;;;;;;5009073;28;20050;-63
2023/04/22 02:09:10;;;;;;;3.15;1.85;;;4.60;99.90;;;;;;5011185;28;20510;-75
2023/04/22 02:11:37;;;;;;;2.63;1.88;;;4.60;99.90;;;;;;5014311;28;20052;-61
2023/04/22 02:14:04;;;;;;;1.98;1.52;;;4.50;99.90;;;;;;5018110;28;20057;-64
2023/04/22 02:16:31;;;;;;;4.28;2.42;;;4.60;99.90;;;;;;4999252;28;20123;-67
2023/04/22 02:18:59;;;;;;;2.17;1.50;;;4.50;99.90;;;;;;5017312;28;20079;-64
2023/04/22 02:21:28;;;;;;;3.00;2.10;;;4.50;99.90;;;;;;5005907;28;20062;-61
2023/04/22 02:23:55;;;;;;;4.13;2.00;;;4.50;99.90;;;;;;4998370;28;20038;-61
2023/04/22 02:26:23;;;;;;;2.83;2.55;;;4.40;99.90;;;;;;5019884;28;20116;-61
2023/04/22 02:28:51;;;;;;;1.88;1.17;;;4.40;99.90;;;;;;5004791;28;20129;-66
2023/04/22 02:31:18;;;;;;;3.60;1.50;;;4.40;99.90;;;;;;5018222;28;20128;-61
2023/04/22 02:33:45;;;;;;;1.80;1.63;;;4.40;99.90;;;;;;5022880;28;20052;-68
2023/04/22 02:36:13;;;;;;;3.25;2.38;;;4.40;99.90;;;;;;4994808;28;20136;-66
2023/04/22 02:38:40;;;;;;;6.07;2.78;;;4.30;99.90;;;;;;5016897;28;20104;-67
2023/04/22 02:41:07;;;;;;;8.23;2.55;;;4.40;99.90;;;;;;5025895;28;20045;-63
2023/04/22 02:43:35;;;;;;;3.70;1.75;;;4.30;99.90;;;;;;5019462;28;20054;-67
2023/04/22 02:46:02;;;;;;;3.30;1.67;;;4.30;99.90;;;;;;5023184;28;20119;-62
2023/04/22 02:48:29;;;;;;;3.65;1.58;;;4.30;99.90;;;;;;5033907;28;20053;-61
2023/04/22 02:50:56;;;;;;;3.25;1.98;;;4.30;99.90;;;;;;4994637;28;20050;-61
2023/04/22 02:53:23;;;;;;;3.40;2.42;;;4.30;99.90;;;;;;5024369;28;20050;-68
2023/04/22 02:55:51;;;;;;;5.38;1.85;;;4.20;99.90;;;;;;5024517;28;20074;-62
2023/04/22 02:58:18;;;;;;;2.75;1.95;;;4.20;99.90;;;;;;5016255;28;20056;-67
2023/04/22 03:00:45;;;;;;;2.13;1.90;;;4.20;99.90;;;;;;5015217;28;20038;-62
2023/04/22 03:03:12;;;;;;;2.67;2.00;;;4.10;99.90;;;;;;5016962;28;20105;-62
2023/04/22 03:05:39;;;;;;;2.47;2.08;;;4.10;99.90;;;;;;5023347;28;20062;-62
2023/04/22 03:08:06;;;;;;;3.55;2.20;;;4.10;99.90;;;;;;5016703;28;20388;-62
2023/04/22 03:10:33;;;;;;;2.28;2.05;;;4.10;99.90;;;;;;5016801;28;20054;-68
2023/04/22 03:13:00;;;;;;;2.55;1.65;;;4.00;99.90;;;;;;5022362;28;20072;-70
2023/04/22 03:15:27;;;;;;;7.22;2.00;;;4.00;99.90;;;;;;5017311;28;20050;-65
2023/04/22 03:17:54;;;;;;;3.17;2.22;;;4.00;99.90;;;;;;5011839;28;20107;-65
2023/04/22 03:20:22;;;;;;;3.00;2.05;;;4.00;99.90;;;;;;5035759;28;20153;-68
2023/04/22 03:22:49;;;;;;;4.00;1.80;;;4.00;99.90;;;;;;5013881;28;20072;-69
2023/04/22 03:25:16;;;;;;;5.07;2.17;;;4.00;99.90;;;;;;5006935;28;20045;-63
2023/04/22 03:27:51;;;;;;;3.72;2.13;;;4.00;99.90;;;;;;5025219;28;20045;-70
2023/04/22 03:30:18;;;;;;;2.15;1.92;;;4.00;99.90;;;;;;5014701;28;20077;-76
2023/04/22 03:32:46;;;;;;;2.75;2.33;;;4.00;99.90;;;;;;5009781;28;20137;-73
2023/04/22 03:35:22;;;;;;;3.00;2.00;;;4.00;99.90;;;;;;5025918;28;20502;-62
2023/04/22 03:37:51;;;;;;;2.50;2.20;;;4.00;99.90;;;;;;5024162;28;20375;-70
2023/04/22 03:40:23;;;;;;;4.63;2.50;;;4.00;99.90;;;;;;5006959;28;20412;-61
2023/04/22 03:42:50;;;;;;;5.57;1.67;;;3.90;99.90;;;;;;5020986;28;20049;-67
2023/04/22 03:45:19;;;;;;;6.20;2.40;;;3.90;99.90;;;;;;5008428;28;20045;-63
2023/04/22 03:47:54;;;;;;;2.38;2.13;;;3.90;99.90;;;;;;5008767;28;20135;-65
2023/04/22 03:50:28;;;;;;;4.00;1.92;;;3.90;99.90;;;;;;5018782;28;20463;-63
2023/04/22 03:52:56;;;;;;;2.72;1.98;;;3.90;99.90;;;;;;5024541;28;20527;-62
2023/04/22 03:55:23;;;;;;;3.47;1.85;;;3.90;99.90;;;;;;5021441;28;20056;-70
2023/04/22 03:57:51;;;;;;;2.20;1.80;;;3.90;99.90;;;;;;5025229;28;20050;-62
2023/04/22 04:00:19;;;;;;;2.05;1.85;;;4.00;99.90;;;;;;5015448;28;20064;-65
2023/04/22 04:02:53;;;;;;;4.47;2.60;;;4.00;99.90;;;;;;5010754;28;20126;-70
2023/04/22 04:05:24;;;;;;;2.97;2.30;;;4.00;99.90;;;;;;5022519;28;20064;-62
2023/04/22 04:07:51;;;;;;;4.40;2.20;;;4.00;99.90;;;;;;4998367;28;20057;-69
2023/04/22 04:10:18;;;;;;;4.13;2.63;;;4.10;99.90;;;;;;5006886;28;20648;-62
2023/04/22 04:12:46;;;;;;;5.20;2.28;;;4.10;99.90;;;;;;5019611;28;20152;-61
2023/04/22 04:15:13;;;;;;;6.35;3.35;;;4.10;99.90;;;;;;5018243;28;20072;-62
2023/04/22 04:17:40;;;;;;;5.10;3.85;;;4.20;99.90;;;;;;5020449;28;20427;-66
2023/04/22 04:20:07;;;;;;;5.05;2.83;;;4.20;99.90;;;;;;5020076;28;20053;-72
2023/04/22 04:22:36;;;;;;;3.55;2.67;;;4.30;99.90;;;;;;5025725;28;20149;-65
2023/04/22 04:25:05;;;;;;;5.72;2.50;;;4.30;99.90;;;;;;5022833;28;20126;-68
2023/04/22 04:27:38;;;;;;;3.67;2.30;;;4.40;99.90;;;;;;5012265;28;20073;-70
2023/04/22 04:30:06;;;;;;;3.50;3.20;;;4.40;99.90;;;;;;5021797;28;20149;-69
2023/04/22 04:32:48;;;;;;;4.82;3.50;;;4.50;99.90;;;;;;5019886;28;20133;-63
2023/04/22 04:35:17;;;;;;;4.57;2.67;;;4.50;99.90;;;;;;5010861;28;20062;-67
2023/04/22 04:37:49;;;;;;;3.75;2.58;;;4.60;99.90;;;;;;4994960;28;20073;-66
2023/04/22 04:40:17;;;;;;;2.42;2.22;;;4.70;99.90;;;;;;5017292;28;20050;-65
2023/04/22 04:42:51;;;;;;;4.32;2.63;;;4.70;99.90;;;;;;5012459;28;20053;-72
2023/04/22 04:45:23;;;;;;;2.80;2.30;;;4.80;99.90;;;;;;5016731;28;20092;-67
2023/04/22 04:47:54;;;;;;;4.90;2.58;;;4.90;99.90;;;;;;5000530;28;20046;-68
2023/04/22 04:50:29;;;;;;;3.63;2.80;;;5.00;99.90;;;;;;5021756;28;20561;-65
2023/04/22 04:53:00;;;;;;;6.05;2.72;;;5.00;99.90;;;;;;5016206;28;20447;-66
2023/04/22 04:55:34;;;;;;;5.07;2.10;;;5.10;99.90;;;;;;5023167;28;20096;-67
2023/04/22 04:58:05;;;;;;;3.47;2.63;;;5.30;99.90;;;;;;5017329;28;20143;-64
2023/04/22 05:00:32;;;;;;;3.15;1.90;;;5.40;99.90;;;;;;5036179;28;20043;-68
2023/04/22 05:02:59;;;;;;;4.07;2.22;;;5.50;99.90;;;;;;5006276;28;20092;-72
2023/04/22 05:05:27;;;;;;;2.85;2.15;;;5.60;99.90;;;;;;4997541;28;20112;-62
2023/04/22 05:07:54;;;;;;;2.45;1.85;;;5.70;99.90;;;;;;4997219;28;20096;-65
2023/04/22 05:10:22;;;;;;;2.08;1.88;;;5.80;99.90;;;;;;5015614;28;20084;-71
2023/04/22 05:12:49;;;;;;;4.38;2.00;;;5.90;99.90;;;;;;5013425;28;20060;-65
2023/04/22 05:15:21;;;;;;;1.85;1.70;;;6.10;99.90;;;;;;5008849;28;20082;-74
2023/04/22 05:17:47;;;;;;;4.43;2.05;;;6.20;99.90;;;;;;5014010;28;20133;-63
2023/04/22 05:20:14;;;;;;;2.10;1.90;;;6.40;99.90;;;;;;4994148;28;20046;-66
2023/04/22 05:22:43;;;;;;;1.73;1.38;;;6.60;99.90;;;;;;4994480;28;20057;-69
2023/04/22 05:25:11;;;;;;;1.67;1.47;;;6.90;99.90;;;;;;4994538;28;20523;-69
2023/04/22 05:27:43;;;;;;;1.92;1.52;;;7.10;99.90;;;;;;5001243;28;20058;-64
2023/04/22 05:30:12;;;;;;;3.13;1.20;;;7.40;99.90;;;;;;5029455;28;20042;-66
2023/04/22 05:32:38;;;;;;;1.70;1.60;;;7.60;99.90;;;;;;5001743;28;20053;-64
2023/04/22 05:35:06;;;;;;;2.03;1.05;;;7.90;99.40;;;;;;5011823;28;20052;-65
2023/04/22 05:37:33;;;;;;;2.90;1.60;;;8.00;98.80;;;;;;5019001;28;20072;-63
2023/04/22 05:40:00;;;;;;;1.88;1.40;;;8.20;98.60;;;;;;5029441;28;20184;-67
2023/04/22 05:42:27;;;;;;;1.38;1.10;;;8.50;97.80;;;;;;5022803;28;20455;-66
2023/04/22 05:44:54;;;;;;;1.50;1.13;;;8.50;97.90;;;;;;5012801;28;20198;-67
2023/04/22 05:47:21;;;;;;;1.55;1.10;;;8.70;97.30;;;;;;5014003;28;20134;-64
2023/04/22 05:49:49;;;;;;;1.50;1.40;;;8.80;97.40;;;;;;5021074;28;20143;-65
2023/04/22 05:52:28;;;;;;;1.58;1.48;;;9.00;97.80;;;;;;5018535;28;20384;-66
2023/04/22 05:55:10;;;;;;;0.80;0.80;;;9.10;97.20;;;;;;5017250;28;20049;-71
2023/04/22 05:57:37;;;;;;;1.90;0.80;;;9.30;97.20;;;;;;5019884;28;20522;-65
2023/04/22 06:00:10;;;;;;;1.35;1.20;;;9.40;97.00;;;;;;5034894;28;20054;-64
2023/04/22 06:02:42;;;;;;;1.00;0.90;;;9.50;96.90;;;;;;5011838;28;20535;-72
2023/04/22 06:05:09;;;;;;;2.58;0.90;;;9.70;96.80;;;;;;5008968;28;20053;-65
2023/04/22 06:07:36;;;;;;;6.03;1.10;;;9.90;97.00;;;;;;5034027;28;20365;-66
2023/04/22 06:10:06;;;;;;;0.88;0.85;;;10.00;96.50;;;;;;5017089;28;20583;-63
2023/04/22 06:12:34;;;;;;;1.48;1.38;;;10.10;96.80;;;;;;5033622;28;20140;-67
2023/04/22 06:15:01;;;;;;;2.13;1.00;;;10.30;96.70;;;;;;5018429;28;20061;-65
2023/04/22 06:17:28;;;;;;;1.33;0.75;;;10.30;96.70;;;;;;5015559;28;20157;-63
2023/04/22 06:19:55;;;;;;;1.83;0.93;;;10.40;96.80;;;;;;5025768;28;20038;-66
2023/04/22 06:22:22;;;;;;;2.55;0.80;;;10.50;96.80;;;;;;5013849;28;20252;-64
2023/04/22 06:24:49;;;;;;;1.00;0.95;;;10.70;96.80;;;;;;5021718;28;20041;-65
2023/04/22 06:27:16;;;;;;;1.17;0.98;;;10.80;96.60;;;;;;5011527;28;20072;-65
2023/04/22 06:29:43;;;;;;;1.23;1.13;;;10.90;96.70;;;;;;4997833;28;20050;-63
2023/04/22 06:32:12;;;;;;;1.52;0.70;;;11.00;96.60;;;;;;5004276;28;20046;-66
2023/04/22 06:34:40;;;;;;;2.20;0.88;;;11.00;96.90;;;;;;5008829;28;20057;-65
2023/04/22 06:37:07;;;;;;;2.63;0.88;;;11.10;96.60;;;;;;4996564;28;20061;-67
2023/04/22 06:39:35;;;;;;;1.60;1.13;;;11.30;96.20;;;;;;5020078;28;20405;-65
2023/04/22 06:42:19;;;;;;;0.93;0.93;;;11.40;95.70;;;;;;5015969;28;20046;-64
2023/04/22 06:45:08;;;;;;;0.90;0.90;;;11.50;95.20;;;;;;5000070;28;20398;-64
2023/04/22 06:47:53;;;;;;;2.10;1.38;;;11.70;95.40;;;;;;4992725;28;20046;-65
2023/04/22 06:50:24;;;;;;;1.05;0.85;;;11.70;95.60;;;;;;5014732;28;20038;-64
2023/04/22 06:52:57;;;;;;;2.45;1.33;;;11.70;95.50;;;;;;4997589;28;20170;-63
2023/04/22 06:55:24;;;;;;;3.92;1.83;;;11.70;95.40;;;;;;5012300;28;20058;-64
2023/04/22 06:57:51;;;;;;;2.63;0.68;;;11.70;94.50;;;;;;5012666;28;20483;-68
2023/04/22 07:00:18;;;;;;;7.75;0.80;;;11.80;94.40;;;;;;5021973;28;20407;-66
2023/04/22 07:02:45;;;;;;;1.00;0.90;;;11.80;93.70;;;;;;5015068;28;20103;-65
2023/04/22 07:05:13;;;;;;;2.70;1.05;;;11.90;93.60;;;;;;5018153;28;20495;-68
2023/04/22 07:07:40;;;;;;;4.22;1.00;;;11.90;94.00;;;;;;5000859;28;20089;-64
2023/04/22 07:10:12;;;;;;;1.02;0.50;;;11.90;93.30;;;;;;5020166;28;20068;-68
2023/04/22 07:12:46;;;;;;;1.25;0.60;;;12.00;93.10;;;;;;5019235;28;20173;-63
2023/04/22 07:15:13;;;;;;;2.17;0.82;;;12.10;93.00;;;;;;5023971;28;20049;-70
2023/04/22 07:17:40;;;;;;;0.95;0.43;;;12.20;92.80;;;;;;5019791;28;20053;-63
2023/04/22 07:20:08;;;;;;;8.55;0.77;;;12.30;92.70;;;;;;5015982;28;20068;-65
2023/04/22 07:22:35;;;;;;;0.52;0.47;;;12.40;93.20;;;;;;5009185;28;20077;-66
2023/04/22 07:25:03;;;;;;;0.95;0.80;;;12.40;92.80;;;;;;4998980;28;20058;-64
2023/04/22 07:27:30;;;;;;;0.70;0.63;;;12.40;93.20;;;;;;5010301;28;20123;-68
2023/04/22 07:29:56;;;;;;;3.05;0.30;;;12.50;93.00;;;;;;5017443;28;20051;-66
2023/04/22 07:32:23;;;;;;;0.60;0.47;;;12.50;93.00;;;;;;4997394;28;20152;-65
2023/04/22 07:34:50;;;;;;;0.55;0.40;;;12.60;93.30;;;;;;5009935;28;20061;-67
2023/04/22 07:37:17;;;;;;;1.00;0.60;;;12.60;93.40;;;;;;5008406;28;20053;-65
2023/04/22 07:39:44;;;;;;;2.45;0.60;;;12.60;93.60;;;;;;5017070;28;20049;-66
2023/04/22 07:42:11;;;;;;;0.65;0.43;;;12.60;93.50;;;;;;5015073;28;20054;-69
2023/04/22 07:44:38;;;;;;;0.75;0.43;;;12.60;93.00;;;;;;4998559;28;20054;-74
2023/04/22 07:47:07;;;;;;;1.63;0.57;;;12.60;93.50;;;;;;5009227;28;20049;-66
2023/04/22 07:49:34;;;;;;;2.55;0.60;;;12.70;93.70;;;;;;5019200;28;20037;-65
2023/04/22 07:52:01;;;;;;;3.20;0.50;;;12.70;93.50;;;;;;5003932;28;20156;-66
2023/04/22 07:54:28;;;;;;;0.70;0.50;;;12.70;93.80;;;;;;5012849;28;20408;-67
2023/04/22 07:56:56;;;;;;;2.65;0.52;;;12.80;93.80;;;;;;5013036;28;20048;-64
2023/04/22 07:59:24;;;;;;;0.95;0.65;;;12.80;93.30;;;;;;5012703;28;20612;-73
2023/04/22 08:01:50;;;;;;;1.85;0.70;;;12.80;93.50;;;;;;5020195;28;20089;-64
2023/04/22 08:04:21;;;;;;;1.98;0.43;;;12.80;92.70;;;;;;4998946;28;20057;-64
2023/04/22 08:06:49;;;;;;;2.38;0.38;;;12.80;92.90;;;;;;5008399;28;20069;-68
2023/04/22 08:09:16;;;;;;;2.60;0.55;;;12.90;92.90;;;;;;4996371;28;20116;-64
2023/04/22 08:11:43;;;;;;;1.25;0.60;;;12.90;92.70;;;;;;4998676;28;20045;-65
2023/04/22 08:14:09;;;;;;;2.38;0.50;;;13.00;93.00;;;;;;5018591;28;20057;-70
2023/04/22 08:16:37;;;;;;;1.27;0.50;;;13.00;93.10;;;;;;5019738;28;20061;-63
2023/04/22 08:19:04;;;;;;;3.08;1.10;;;13.20;93.10;;;;;;5021409;28;20049;-64
2023/04/22 08:21:31;;;;;;;2.85;0.52;;;13.10;92.80;;;;;;5014679;28;20111;-66
2023/04/22 08:23:58;;;;;;;2.65;0.68;;;13.20;93.10;;;;;;5020349;28;20465;-69
2023/04/22 08:26:26;;;;;;;1.10;0.63;;;13.20;92.00;;;;;;5009786;28;20041;-63
2023/04/22 08:28:52;;;;;;;2.45;0.80;;;13.20;92.00;;;;;;5017397;28;20145;-66
2023/04/22 08:31:19;;;;;;;1.23;0.80;;;13.20;92.20;;;;;;5017861;28;20191;-65
2023/04/22 08:33:46;;;;;;;1.05;0.80;;;13.10;92.00;;;;;;5016900;28;20049;-63
2023/04/22 08:36:13;;;;;;;1.38;0.90;;;13.10;92.40;;;;;;4999965;28;20041;-66
2023/04/22 08:38:40;;;;;;;0.43;0.40;;;13.20;92.70;;;;;;5015635;28;20076;-66
2023/04/22 08:41:08;;;;;;;2.33;2.13;;;13.20;92.30;;;;;;5005790;28;20152;-63
2023/04/22 08:43:35;;;;;;;2.05;0.82;;;13.30;92.00;;;;;;5012797;28;20066;-63
2023/04/22 08:46:02;;;;;;;2.22;1.17;;;13.40;92.10;;;;;;5016783;28;20052;-63
2023/04/22 08:48:29;;;;;;;0.70;0.55;;;13.30;92.20;;;;;;5018186;28;20092;-68
2023/04/22 08:50:57;;;;;;;3.55;0.80;;;13.40;92.10;;;;;;5015403;28;20061;-68
2023/04/22 08:53:23;;;;;;;0.93;0.80;;;13.50;92.20;;;;;;5013357;28;20204;-71
2023/04/22 08:55:50;;;;;;;1.80;0.50;;;13.50;91.70;;;;;;5017349;28;20049;-63
2023/04/22 08:58:17;;;;;;;3.47;0.90;;;13.60;92.00;;;;;;5020735;28;20049;-74
2023/04/22 09:00:44;;;;;;;1.30;0.75;;;13.60;91.90;;;;;;5010848;28;20057;-70
2023/04/22 09:03:11;;;;;;;1.90;0.93;;;13.50;91.60;;;;;;5016648;28;20049;-64
2023/04/22 09:05:39;;;;;;;0.75;0.73;;;13.60;92.10;;;;;;5014650;28;20045;-67
2023/04/22 09:08:07;;;;;;;5.28;0.85;;;13.50;92.30;;;;;;5009563;28;20072;-65
2023/04/22 09:10:37;;;;;;;1.45;0.70;;;13.60;92.10;;;;;;5001899;28;20156;-69
2023/04/22 09:13:05;;;;;;;1.17;1.08;;;13.70;92.30;;;;;;4998015;28;20049;-67
2023/04/22 09:15:33;;;;;;;2.30;0.95;;;13.70;91.80;;;;;;5017257;28;20139;-68
2023/04/22 09:18:02;;;;;;;1.08;0.70;;;13.70;91.60;;;;;;5020230;28;20064;-63
2023/04/22 09:20:30;;;;;;;1.08;0.98;;;13.80;91.40;;;;;;5017082;28;20042;-71
2023/04/22 09:23:03;;;;;;;1.10;0.93;;;13.70;90.90;;;;;;5011027;28;20063;-66
2023/04/22 09:25:33;;;;;;;3.72;0.68;;;13.80;91.30;;;;;;5008935;28;20054;-64
2023/04/22 09:28:00;;;;;;;1.02;0.65;;;13.80;91.50;;;;;;5019195;28;20077;-64
2023/04/22 09:30:30;;;;;;;0.90;0.70;;;13.90;91.00;;;;;;5022357;28;20056;-71
2023/04/22 09:33:03;;;;;;;1.48;0.90;;;13.90;91.10;;;;;;5021974;28;20399;-73
2023/04/22 09:35:38;;;;;;;1.35;1.25;;;14.00;90.90;;;;;;5015896;28;20248;-63
2023/04/22 09:38:08;;;;;;;1.33;0.95;;;14.10;90.60;;;;;;5022801;28;20053;-70
2023/04/22 09:40:36;;;;;;;3.25;0.90;;;14.20;90.50;;;;;;5013412;28;20584;-65
2023/04/22 09:43:06;;;;;;;1.05;0.50;;;14.20;91.00;;;;;;5012946;28;20128;-64
2023/04/22 09:45:34;;;;;;;2.40;0.50;;;14.20;90.70;;;;;;5006425;28;20506;-67
2023/04/22 09:48:08;;;;;;;0.88;0.55;;;14.20;91.10;;;;;;4993807;28;20058;-65
2023/04/22 09:50:37;;;;;;;4.35;1.50;;;14.30;90.90;;;;;;5015514;28;20496;-66
2023/04/22 09:53:09;;;;;;;2.58;0.55;;;14.40;90.90;;;;;;5018308;28;20061;-69
2023/04/22 09:55:40;;;;;;;3.85;0.40;;;14.40;91.30;;;;;;5020668;28;20055;-63
2023/04/22 09:58:16;;;;;;;0.60;0.60;;;14.60;91.00;;;;;;5016254;28;20085;-62
2023/04/22 10:00:49;;;;;;;0.95;0.55;;;14.70;90.80;;;;;;5022125;28;20607;-68
2023/04/22 10:03:16;;;;;;;0.75;0.50;;;14.70;90.60;;;;;;5021427;28;20049;-70
2023/04/22 10:05:45;;;;;;;1.92;0.50;;;14.60;90.90;;;;;;5022398;28;20195;-64
2023/04/22 10:08:13;;;;;;;8.07;0.88;;;14.70;91.30;;;;;;5008801;28;20141;-72
2023/04/22 10:10:41;;;;;;;1.48;0.57;;;14.80;90.70;;;;;;4998496;28;20065;-65
2023/04/22 10:13:08;;;;;;;0.60;0.40;;;14.90;91.20;;;;;;5014391;28;20056;-69
2023/04/22 10:15:41;;;;;;;1.02;0.93;;;15.00;91.50;;;;;;5020991;28;20503;-64
2023/04/22 10:18:12;;;;;;;1.05;0.85;;;15.20;91.10;;;;;;4999048;28;20061;-65
2023/04/22 10:20:41;;;;;;;2.75;0.52;;;15.40;90.60;;;;;;5005099;28;20091;-67
2023/04/22 10:23:23;;;;;;;0.73;0.30;;;15.50;90.90;;;;;;5004173;28;20465;-67
2023/04/22 10:25:53;;;;;;;0.82;0.52;;;15.60;90.90;;;;;;5015338;28;20055;-64
2023/04/22 10:28:21;;;;;;;0.77;0.50;;;15.60;90.40;;;;;;5018924;28;20050;-66
2023/04/22 10:30:49;;;;;;;1.77;1.10;;;15.40;89.80;;;;;;5016012;28;20052;-72
2023/04/22 10:33:30;;;;;;;1.67;0.60;;;15.30;90.40;;;;;;5001525;28;20571;-67
2023/04/22 10:36:13;;;;;;;1.02;0.93;;;15.30;90.60;;;;;;5015187;28;20148;-63
2023/04/22 10:39:01;;;;;;;2.50;0.68;;;15.20;90.40;;;;;;5013762;28;20042;-63
2023/04/22 10:41:31;;;;;;;5.90;1.38;;;15.20;90.30;;;;;;5013402;28;20066;-64
2023/04/22 10:43:59;;;;;;;2.53;0.87;;;15.20;90.50;;;;;;5016876;28;20144;-67
2023/04/22 10:46:30;;;;;;;1.42;0.95;;;15.30;90.20;;;;;;5011055;28;20408;-68
2023/04/22 10:48:58;;;;;;;1.42;0.60;;;15.30;90.30;;;;;;4994855;28;20120;-68
2023/04/22 10:51:40;;;;;;;13.07;1.50;;;15.40;89.00;;;;;;4993966;28;20412;-62
2023/04/22 10:57:13;;;;;;;4.40;1.55;;;15.50;89.80;;;;;;5008957;28;20057;-65
2023/04/22 10:59:54;;;;;;;2.03;0.50;;;15.70;90.10;;;;;;5013791;28;20172;-64
2023/04/22 11:02:22;;;;;;;0.63;0.63;;;15.80;89.30;;;;;;5016950;28;20136;-65
2023/04/22 11:04:53;;;;;;;0.47;0.38;;;15.90;88.70;;;;;;5016548;28;20041;-63
2023/04/22 11:07:25;;;;;;;2.58;1.13;;;15.90;88.90;;;;;;5015009;28;20050;-63
2023/04/22 11:10:05;;;;;;;3.10;0.80;;;16.00;89.40;;;;;;5012473;28;20054;-68
2023/04/22 11:12:38;;;;;;;1.85;0.60;;;16.10;88.90;;;;;;5017420;28;20165;-63
2023/04/22 11:15:08;;;;;;;1.15;0.63;;;16.10;88.70;;;;;;5000662;28;20042;-68
2023/04/22 11:17:36;;;;;;;;;;;16.30;89.80;;;;;;4994409;28;20688;-66
2023/04/22 11:20:04;;;;;;;2.00;1.88;;;16.40;88.00;;;;;;4998589;28;19996;-66
2023/04/22 11:22:35;;;;;;;1.25;0.57;;;16.40;88.80;;;;;;4997427;28;20065;-65
2023/04/22 11:25:04;;;;;;;2.67;1.40;;;16.60;89.10;;;;;;5007102;28;20136;-66
2023/04/22 11:27:31;;;;;;;1.33;0.90;;;16.70;87.80;;;;;;5012356;28;20423;-73
2023/04/22 11:30:08;;;;;;;2.40;0.80;;;16.70;87.40;;;;;;5025049;28;20046;-66
2023/04/22 11:32:38;;;;;;;1.35;0.80;;;16.70;88.20;;;;;;5001263;28;20042;-68
2023/04/22 11:35:07;;;;;;;1.75;1.10;;;16.80;87.90;;;;;;4998568;28;22318;-76
2023/04/22 11:37:57;;;;;;;1.40;0.70;;;16.90;87.40;;;;;;5007547;28;20058;-66
2023/04/22 11:40:54;;;;;;;4.37;0.80;;;16.90;87.70;;;;;;5014258;28;20546;-69
2023/04/22 11:43:21;;;;;;;1.17;0.52;;;17.00;87.60;;;;;;5005755;28;20084;-76
2023/04/22 11:45:48;;;;;;;2.55;1.08;;;17.00;86.70;;;;;;5014109;28;20064;-74
2023/04/22 11:48:15;;;;;;;0.93;0.43;;;16.90;86.70;;;;;;5013717;28;20053;-64
2023/04/22 11:50:43;;;;;;;1.80;1.25;;;16.80;86.60;;;;;;5001282;28;20050;-69
2023/04/22 11:53:14;;;;;;;2.10;1.00;;;16.90;87.40;;;;;;5010770;28;20060;-69
2023/04/22 11:55:43;;;;;;;4.72;1.15;;;17.00;86.00;;;;;;5009276;28;20049;-69
2023/04/22 11:58:19;;;;;;;1.95;0.60;;;17.20;87.20;;;;;;5017948;28;20063;-67
2023/04/22 12:00:51;;;;;;;1.23;0.47;;;17.30;85.80;;;;;;5006905;28;20057;-69
2023/04/22 12:03:20;;;;;;;3.53;0.47;;;17.40;85.80;;;;;;4983370;28;20151;-67
2023/04/22 12:05:53;;;;;;;3.85;1.38;;;17.60;84.00;;;;;;5017096;28;20144;-75
2023/04/22 12:08:31;;;;;;;1.73;0.50;;;17.80;83.30;;;;;;5013598;28;20559;-66
2023/04/22 12:11:01;;;;;;;1.20;0.60;;;17.90;82.30;;;;;;5008966;28;20053;-66
2023/04/22 12:13:49;;;;;;;4.95;1.20;;;18.00;82.10;;;;;;5008019;28;20680;-67
2023/04/22 12:16:18;;;;;;;5.22;1.08;;;18.10;81.90;;;;;;5009773;28;20172;-67
2023/04/22 12:18:53;;;;;;;8.70;1.15;;;18.20;81.80;;;;;;5012887;28;20148;-70
2023/04/22 12:21:22;;;;;;;4.88;0.95;;;18.20;80.60;;;;;;5000400;28;20758;-69
2023/04/22 12:23:54;;;;;;;2.92;0.30;;;18.40;81.90;;;;;;5008956;28;20045;-69
2023/04/22 12:26:23;;;;;;;2.42;0.90;;;18.40;80.90;;;;;;5009177;28;20503;-67
2023/04/22 12:28:53;;;;;;;3.92;0.70;;;18.40;80.10;;;;;;4999753;28;20101;-65
2023/04/22 12:31:20;;;;;;;3.72;0.70;;;18.50;81.90;;;;;;5013731;28;20100;-67
2023/04/22 12:33:47;;;;;;;3.20;0.95;;;18.30;79.10;;;;;;5016925;28;20480;-72
2023/04/22 12:36:17;;;;;;;2.20;0.63;;;18.20;80.00;;;;;;4994157;28;20492;-68
2023/04/22 12:38:44;;;;;;;0.90;0.70;;;18.30;80.40;;;;;;5016664;28;20572;-65
2023/04/22 12:41:11;;;;;;;3.40;0.82;;;18.10;79.80;;;;;;5012600;28;20530;-71
2023/04/22 12:43:38;;;;;;;4.13;0.75;;;18.20;79.60;;;;;;5014945;28;20130;-66
2023/04/22 12:46:07;;;;;;;4.00;0.52;;;18.10;79.20;;;;;;5019054;28;20068;-68
2023/04/22 12:48:36;;;;;;;2.95;0.50;;;18.00;79.30;;;;;;5003251;28;20049;-68
2023/04/22 12:51:03;;;;;;;3.40;0.95;;;18.00;79.00;;;;;;5020918;28;20134;-65
2023/04/22 12:53:31;;;;;;;2.28;0.90;;;18.00;79.30;;;;;;5025627;28;20546;-68
2023/04/22 12:55:58;;;;;;;1.02;0.50;;;18.00;79.30;;;;;;5017911;28;20053;-67
2023/04/22 12:58:25;;;;;;;5.82;0.85;;;18.20;78.30;;;;;;5020303;28;20450;-65
2023/04/22 13:00:52;;;;;;;1.00;0.50;;;18.30;78.30;;;;;;5014907;28;20042;-64
2023/04/22 13:03:18;;;;;;;2.72;0.63;;;18.30;77.80;;;;;;5006670;28;20411;-65
2023/04/22 13:05:46;;;;;;;2.72;0.40;;;18.30;77.60;;;;;;5014479;28;20052;-65